Aeroporto :
LOGIN :

Iscrizione | Disclaimer

   EN    FR    IT 

 










Sommario :    VFR   VFR Marginale   IFR   IFR Intensivo   IFR Molto Intensivo
Visibilità : 
Base nubi : 
>= 8 km
>= 3000ft
5 / 8 km
1000 / 3000 ft
1500m / 5 km
500 / 1000 ft
800 / 1500m
200 / 500 ft
< 800m
< 200 ft
Simboli :   Temporali  Nebbia  Neve Forte  Precipitazioni Forti  Vento > 20 kt
SIGMETs :   Varie  Temporali  Ghiacco  Turbolenza  Onda orograficha  Ceneri Vulcaniche






- Altitudine del aeroporto : 2265 ft
- Codice IATA : CZL


DABC - Mohamed Boudiaf Int. Constantine

ULTIMO METAR :
  • 091700Z 28007KT 9999 SCT030TCU FEW033CB 16/09 Q1020

METARs OBSOLETI :
  • 091630Z 02007KT 350V050 9999 SCT030TCU FEW033CB 17/07 Q1019
  • 091600Z 02007KT 350V050 9999 SCT030TCU FEW033CB 19/10 Q1019
  • 091530Z 02007KT 330V070 9999 SCT026 FEW030CB 19/11 Q1019
  • 091500Z 04007KT 9999 FEW033 20/10 Q1019
  • 091430Z 02008KT 9999 SCT033 20/10 Q1019

TAF TAF DABC
Valido dal 09 a 18 ore il 10 a 18 ore UTC


091700Z 0918/1018 03008KT 9999 FEW026CB SCT030TCU
PROB30
TEMPO 0918/0920 02015G25KT 4000 -TSRA
BECMG 0922/0924 FEW030
PROB30
TEMPO 1003/1007 3000 BR BKN013
PROB40
TEMPO 1012/1018 FEW026CB
PROB30
TEMPO 1014/1018 5000 -TSRA



MetMap, La meteo Aeronautica in un colpo d'occhio ! - Copyright ORBIFLY Dicembre 2007 - Disclaimer

ORBIFLY MET'MAP TEAM :

Programmazione e sviluppo : Alexandra Zaïnal
Concezione : Baudouin d'Aumeries
Aiuto per la programmazione : Marc-Olivier Méhu
Supporto tecnico e logistico : Manuel Goepfert
Aiuto per la traduzione : Arnaldo La Scala

Contatto : metmap@orbifly.com




FONTI E CREDITI :

   NOAA